Time;durP1;ratioP1;P1;durP2;ratioP2;P2;SDS_P1;SDS_P2;PMS_P1;PMS_P2;Temp;Humidity;BMP_temperature;BMP_pressure;BME280_temperature;BME280_humidity;BME280_pressure;Samples;Min_cycle;Max_cycle;Signal;HPM_P1;HPM_P2
2022/02/04 00:07:13;;;;;;;;;;;;;;;;;;5023972;28;19925;-63
2022/02/04 00:20:35;;;;;;;;;;;;;;;;;;5053948;28;20111;-64
2022/02/04 00:23:13;;;;;;;;;;;;;;;;;;5084829;28;19925;-64
2022/02/04 00:25:54;;;;;;;;;;;;;;;;;;5083241;28;19969;-64
2022/02/04 00:28:30;;;;;;;;;;;;;;;;;;5083175;28;19924;-64
2022/02/04 00:31:20;;;;;;;;;;;;;;;;;;5094685;28;19931;-64
2022/02/04 00:33:50;;;;;;;;;;;;;;;;;;5078346;28;19967;-63
2022/02/04 00:36:21;;;;;;;;;;;;;;;;;;5086048;28;20027;-64
2022/02/04 00:38:52;;;;;;;;;;;;;;;;;;5081409;28;19932;-63
2022/02/04 00:41:23;;;;;;;;;;;;;;;;;;5089642;28;19928;-64
2022/02/04 00:43:52;;;;;;;;;;;;;;;;;;5082463;28;19931;-64
2022/02/04 00:46:24;;;;;;;;;;;;;;;;;;5083723;28;19924;-64
2022/02/04 00:48:59;;;;;;;;;;;;;;;;;;5078765;28;19928;-64
2022/02/04 00:51:31;;;;;;;;;;;;;;;;;;5079694;28;19932;-64
2022/02/04 00:54:12;;;;;;;;;;;;;;;;;;5083300;28;20302;-64
2022/02/04 00:56:47;;;;;;;;;;;;;;;;;;5083474;28;19924;-63
2022/02/04 01:26:41;;;;;;;;;;;;;;;;;;5081982;28;19923;-64
2022/02/04 01:29:09;;;;;;;;;;;;;;;;;;5080959;28;19936;-63
2022/02/04 01:31:36;;;;;;;;;;;;;;;;;;5082127;28;19928;-64
2022/02/04 01:34:03;;;;;;;;;;;;;;;;;;5080377;28;20011;-64
2022/02/04 01:36:30;;;;;;;;;;;;;;;;;;5084622;28;19931;-63
2022/02/04 01:38:57;;;;;;;;;;;;;;;;;;5084039;28;20380;-65
2022/02/04 01:41:24;;;;;;;;;;;;;;;;;;5081074;22;19932;-66
2022/02/04 01:43:51;;;;;;;;;;;;;;;;;;5062494;28;20309;-66
2022/02/04 01:46:18;;;;;;;;;;;;;;;;;;5063450;28;19932;-66
2022/02/04 01:48:45;;;;;;;;;;;;;;;;;;5073354;28;20398;-66
2022/02/04 01:51:12;;;;;;;;;;;;;;;;;;5048541;28;19929;-66
2022/02/04 01:53:38;;;;;;;;;;;;;;;;;;5052830;28;19932;-66
2022/02/04 01:56:05;;;;;;;;;;;;;;;;;;5052147;28;20424;-66
2022/02/04 01:58:32;;;;;;;;;;;;;;;;;;5048525;28;19944;-66
2022/02/04 02:00:59;;;;;;;;;;;;;;;;;;5049978;28;20337;-66
2022/02/04 02:03:26;;;;;;;;;;;;;;;;;;5047534;28;19947;-66
2022/02/04 02:05:56;;;;;;;;;;;;;;;;;;5048809;28;19968;-66
2022/02/04 02:08:23;;;;;;;;;;;;;;;;;;5048249;28;19932;-66
2022/02/04 02:10:50;;;;;;;;;;;;;;;;;;5052216;28;19931;-66
2022/02/04 02:13:25;;;;;;;;;;;;;;;;;;5057034;28;19924;-66
2022/02/04 02:16:04;;;;;;;;;;;;;;;;;;5060472;28;20431;-66
2022/02/04 02:35:21;;;;;;;;;;;;;;;;;;5024204;28;19937;-66
2022/02/04 02:43:55;;;;;;;;;;;;;;;;;;5065636;28;19921;-67
2022/02/04 02:46:43;;;;;;;;;;;;;;;;;;5061585;28;20012;-67
2022/02/04 02:52:19;;;;;;;;;;;;;;;;;;4994626;28;20494;-66
2022/02/04 03:00:26;;;;;;;;;;;;;;;;;;5062326;28;19919;-66
2022/02/04 03:02:57;;;;;;;;;;;;;;;;;;5064379;28;19925;-65
2022/02/04 03:05:24;;;;;;;;;;;;;;;;;;5065036;28;20011;-65
2022/02/04 03:07:50;;;;;;;;;;;;;;;;;;5063877;28;19924;-66
2022/02/04 03:10:17;;;;;;;;;;;;;;;;;;5063673;28;20353;-66
2022/02/04 03:12:45;;;;;;;;;;;;;;;;;;5062820;28;19930;-66
2022/02/04 03:15:11;;;;;;;;;;;;;;;;;;5064110;28;19929;-65
2022/02/04 03:17:39;;;;;;;;;;;;;;;;;;5062999;28;20414;-66
2022/02/04 03:20:09;;;;;;;;;;;;;;;;;;5063946;28;19940;-66
2022/02/04 03:22:36;;;;;;;;;;;;;;;;;;5063181;28;19928;-66
2022/02/04 03:25:07;;;;;;;;;;;;;;;;;;5062540;28;19956;-65
2022/02/04 03:27:39;;;;;;;;;;;;;;;;;;5062428;28;19929;-65
2022/02/04 03:30:11;;;;;;;;;;;;;;;;;;5061589;28;19929;-65
2022/02/04 03:32:43;;;;;;;;;;;;;;;;;;5060614;28;19931;-66
2022/02/04 03:35:10;;;;;;;;;;;;;;;;;;5062106;28;20016;-66
2022/02/04 03:37:37;;;;;;;;;;;;;;;;;;5062853;28;19925;-65
2022/02/04 03:40:04;;;;;;;;;;;;;;;;;;5065076;28;20319;-66
2022/02/04 03:42:31;;;;;;;;;;;;;;;;;;5074145;28;19925;-65
2022/02/04 03:44:57;;;;;;;;;;;;;;;;;;5085048;28;20309;-66
2022/02/04 03:47:24;;;;;;;;;;;;;;;;;;5084504;28;19931;-66
2022/02/04 03:49:51;;;;;;;;;;;;;;;;;;5084322;28;19925;-66
2022/02/04 03:52:18;;;;;;;;;;;;;;;;;;5084120;28;19935;-66
2022/02/04 03:54:45;;;;;;;;;;;;;;;;;;5072336;28;20374;-66
2022/02/04 03:57:12;;;;;;;;;;;;;;;;;;5070239;28;19924;-66
2022/02/04 03:59:39;;;;;;;;;;;;;;;;;;5069282;28;20160;-66
2022/02/04 04:02:06;;;;;;;;;;;;;;;;;;5070210;28;19924;-65
2022/02/04 04:04:34;;;;;;;;;;;;;;;;;;5071057;28;19937;-66
2022/02/04 04:07:02;;;;;;;;;;;;;;;;;;5070528;28;19929;-66
2022/02/04 04:09:29;;;;;;;;;;;;;;;;;;5065912;28;19935;-66
2022/02/04 04:11:56;;;;;;;;;;;;;;;;;;5069116;28;19925;-65
2022/02/04 04:14:23;;;;;;;;;;;;;;;;;;5067146;28;19929;-66
2022/02/04 04:16:50;;;;;;;;;;;;;;;;;;5070340;28;19925;-66
2022/02/04 04:19:16;;;;;;;;;;;;;;;;;;5069621;28;19939;-65
2022/02/04 04:21:43;;;;;;;;;;;;;;;;;;5065998;28;20226;-67
2022/02/04 04:24:10;;;;;;;;;;;;;;;;;;5064628;28;20294;-66
2022/02/04 04:26:40;;;;;;;;;;;;;;;;;;5070918;28;19924;-65
2022/02/04 04:29:07;;;;;;;;;;;;;;;;;;5065564;28;19925;-66
2022/02/04 04:31:34;;;;;;;;;;;;;;;;;;5067143;28;19931;-66
2022/02/04 04:34:01;;;;;;;;;;;;;;;;;;5068366;28;19925;-66
2022/02/04 04:36:28;;;;;;;;;;;;;;;;;;5067916;28;19952;-66
2022/02/04 04:39:01;;;;;;;;;;;;;;;;;;5069172;28;19925;-66
2022/02/04 04:41:38;;;;;;;;;;;;;;;;;;5068151;28;19931;-66
2022/02/04 04:44:31;;;;;;;;;;;;;;;;;;5069763;28;19951;-66
2022/02/04 05:26:14;;;;;;;;;;;;;;;;;;5064075;28;19935;-66
2022/02/04 05:28:54;;;;;;;;;;;;;;;;;;5063599;28;19924;-66
2022/02/04 05:31:21;;;;;;;;;;;;;;;;;;5070775;28;19932;-65
2022/02/04 05:33:48;;;;;;;;;;;;;;;;;;5066408;28;20286;-66
2022/02/04 05:36:15;;;;;;;;;;;;;;;;;;5070267;28;19925;-65
2022/02/04 05:38:42;;;;;;;;;;;;;;;;;;5062596;28;20271;-64
2022/02/04 05:41:11;;;;;;;;;;;;;;;;;;5072726;28;19931;-66
2022/02/04 05:43:41;;;;;;;;;;;;;;;;;;5067129;28;20511;-66
2022/02/04 05:46:13;;;;;;;;;;;;;;;;;;5070863;28;19924;-66
2022/02/04 05:48:43;;;;;;;;;;;;;;;;;;5067444;28;19975;-66
2022/02/04 05:51:27;;;;;;;;;;;;;;;;;;5070310;28;20041;-66
2022/02/04 05:54:00;;;;;;;;;;;;;;;;;;5068954;28;20409;-68
2022/02/04 05:56:35;;;;;;;;;;;;;;;;;;5069581;28;19925;-66
2022/02/04 05:59:08;;;;;;;;;;;;;;;;;;5065287;28;19924;-66
2022/02/04 06:01:47;;;;;;;;;;;;;;;;;;5062793;28;19932;-64
2022/02/04 06:04:26;;;;;;;;;;;;;;;;;;5064971;28;19982;-66
2022/02/04 06:23:49;;;;;;;;;;;;;;;;;;5065452;28;20026;-65
2022/02/04 06:26:16;;;;;;;;;;;;;;;;;;5073206;28;19925;-65
2022/02/04 06:28:46;;;;;;;;;;;;;;;;;;5053477;28;19933;-65
2022/02/04 06:31:12;;;;;;;;;;;;;;;;;;5051112;28;19931;-65
2022/02/04 06:33:39;;;;;;;;;;;;;;;;;;5068125;28;20294;-65
2022/02/04 06:36:06;;;;;;;;;;;;;;;;;;5061034;28;19936;-65
2022/02/04 06:38:33;;;;;;;;;;;;;;;;;;5063483;28;19934;-65
2022/02/04 06:41:00;;;;;;;;;;;;;;;;;;5058753;28;19924;-64
2022/02/04 06:43:27;;;;;;;;;;;;;;;;;;5069070;28;19932;-65
2022/02/04 06:45:54;;;;;;;;;;;;;;;;;;5067946;28;19928;-65
2022/02/04 06:48:21;;;;;;;;;;;;;;;;;;5063037;28;19925;-65
2022/02/04 06:50:48;;;;;;;;;;;;;;;;;;5062281;28;20283;-66
2022/02/04 06:53:15;;;;;;;;;;;;;;;;;;5067823;28;19932;-65
2022/02/04 06:55:42;;;;;;;;;;;;;;;;;;5065982;28;19932;-66
2022/02/04 06:58:10;;;;;;;;;;;;;;;;;;5067161;28;19935;-65
2022/02/04 07:00:38;;;;;;;;;;;;;;;;;;5065080;28;20283;-65
2022/02/04 07:03:05;;;;;;;;;;;;;;;;;;5062997;28;20039;-65
2022/02/04 07:05:39;;;;;;;;;;;;;;;;;;5055499;28;19936;-65
2022/02/04 07:08:10;;;;;;;;;;;;;;;;;;5066271;28;20353;-65
2022/02/04 07:10:52;;;;;;;;;;;;;;;;;;5068009;28;20388;-65
2022/02/04 07:13:24;;;;;;;;;;;;;;;;;;5070939;28;19925;-66
2022/02/04 07:15:55;;;;;;;;;;;;;;;;;;5060633;28;19925;-65
2022/02/04 07:21:07;;;;;;;;;;;;;;;;;;5068883;28;20464;-65
2022/02/04 07:23:34;;;;;;;;;;;;;;;;;;5068093;28;20724;-65
2022/02/04 07:26:01;;;;;;;;;;;;;;;;;;5064744;28;19932;-66
2022/02/04 07:28:28;;;;;;;;;;;;;;;;;;5065182;28;19996;-65
2022/02/04 07:30:56;;;;;;;;;;;;;;;;;;5069983;28;20399;-66
2022/02/04 07:33:36;;;;;;;;;;;;;;;;;;5074421;28;20452;-66
2022/02/04 07:40:52;;;;;;;;;;;;;;;;;;5063299;28;20016;-63
2022/02/04 07:41:38;;;;;;;;;;;;;;;;;;5090917;22;20344;-65
2022/02/04 07:44:07;;;;;;;;;;;;;;;;;;5091169;28;19925;-64
2022/02/04 07:46:34;;;;;;;;;;;;;;;;;;5087783;28;19935;-66
2022/02/04 07:49:01;;;;;;;;;;;;;;;;;;5088810;28;20365;-66
2022/02/04 07:51:28;;;;;;;;;;;;;;;;;;5089967;28;19924;-66
2022/02/04 07:54:06;;;;;;;;;;;;;;;;;;;;;
2022/02/04 07:56:33;;;;;;;;;;;;;;;;;;5080634;28;19934;-66
2022/02/04 07:59:06;;;;;;;;;;;;;;;;;;5099786;28;19931;-66
2022/02/04 08:01:33;;;;;;;;;;;;;;;;;;5089969;28;19932;-66
2022/02/04 08:04:09;;;;;;;;;;;;;;;;;;5083398;28;19931;-66
2022/02/04 08:06:40;;;;;;;;;;;;;;;;;;5089121;28;19950;-66
2022/02/04 08:09:16;;;;;;;;;;;;;;;;;;5087314;28;19924;-67
2022/02/04 08:14:43;;;;;;;;;;;;;;;;;;5086444;28;19931;-66
2022/02/04 08:25:55;;;;;;;;;;;;;;;;;;5091867;28;19934;-66
2022/02/04 08:31:28;;;;;;;;;;;;;;;;;;5086766;28;19928;-68
2022/02/04 08:34:25;;;;;;;;;;;;;;;;;;5093563;28;20172;-69
2022/02/04 08:56:10;;;;;;;;;;;;;;;;;;5068811;28;21547;-67
2022/02/04 08:58:42;;;;;;;;;;;;;;;;;;5094058;28;19969;-67
2022/02/04 09:01:14;;;;;;;;;;;;;;;;;;5091499;28;19931;-68
2022/02/04 09:03:50;;;;;;;;;;;;;;;;;;5087581;28;19925;-68
2022/02/04 09:06:23;;;;;;;;;;;;;;;;;;5089606;28;19935;-67
2022/02/04 09:08:53;;;;;;;;;;;;;;;;;;5089963;28;19978;-67
2022/02/04 09:11:38;;;;;;;;;;;;;;;;;;5085399;28;19925;-68
2022/02/04 09:16:58;;;;;;;;;;;;;;;;;;5085994;28;20019;-67
2022/02/04 09:19:27;;;;;;;;;;;;;;;;;;5082229;28;20031;-67
2022/02/04 09:22:17;;;;;;;;;;;;;;;;;;5086698;28;20446;-67
2022/02/04 09:24:44;;;;;;;;;;;;;;;;;;5088202;28;20409;-67
2022/02/04 09:27:11;;;;;;;;;;;;;;;;;;5083718;28;19935;-67
2022/02/04 09:29:38;;;;;;;;;;;;;;;;;;5091220;28;20007;-67
2022/02/04 09:32:05;;;;;;;;;;;;;;;;;;5090610;28;20381;-67
2022/02/04 09:34:32;;;;;;;;;;;;;;;;;;5083268;28;20448;-67
2022/02/04 09:37:02;;;;;;;;;;;;;;;;;;5087015;28;19924;-67
2022/02/04 09:39:29;;;;;;;;;;;;;;;;;;5083776;28;19923;-67
2022/02/04 09:41:56;;;;;;;;;;;;;;;;;;5079710;28;20739;-67
2022/02/04 09:44:23;;;;;;;;;;;;;;;;;;5078543;28;19931;-67
2022/02/04 09:46:50;;;;;;;;;;;;;;;;;;5081764;28;19924;-67
2022/02/04 09:49:23;;;;;;;;;;;;;;;;;;5086348;28;19928;-67
2022/02/04 10:04:29;;;;;;;;;;;;;;;;;;5085607;28;19924;-67
2022/02/04 10:08:38;;;;;;;;;;;;;;;;;;5083613;28;20364;-67
2022/02/04 10:12:02;;;;;;;;;;;;;;;;;;5084275;28;20373;-67
2022/02/04 10:14:20;;;;;;;;;;;;;;;;;;5084172;28;20439;-67
2022/02/04 10:17:06;;;;;;;;;;;;;;;;;;5088854;28;19928;-67
2022/02/04 10:19:39;;;;;;;;;;;;;;;;;;5082047;28;19924;-68
2022/02/04 10:22:06;;;;;;;;;;;;;;;;;;5088791;28;19932;-67
2022/02/04 10:24:33;;;;;;;;;;;;;;;;;;5087585;28;19924;-67
2022/02/04 10:27:00;;;;;;;;;;;;;;;;;;5090318;28;19954;-67
2022/02/04 10:29:27;;;;;;;;;;;;;;;;;;5095498;28;19973;-68
2022/02/04 10:31:54;;;;;;;;;;;;;;;;;;5085132;28;19924;-66
2022/02/04 10:34:24;;;;;;;;;;;;;;;;;;5085919;28;20524;-66
2022/02/04 10:36:55;;;;;;;;;;;;;;;;;;5088482;28;19928;-67
2022/02/04 10:39:22;;;;;;;;;;;;;;;;;;5085293;28;20306;-66
2022/02/04 10:41:50;;;;;;;;;;;;;;;;;;5086826;28;19925;-66
2022/02/04 10:44:25;;;;;;;;;;;;;;;;;;5075879;28;20420;-66
2022/02/04 10:47:01;;;;;;;;;;;;;;;;;;5081095;28;19931;-66
2022/02/04 10:49:40;;;;;;;;;;;;;;;;;;5080621;28;20393;-67
2022/02/04 10:52:23;;;;;;;;;;;;;;;;;;5082082;28;20012;-67
2022/02/04 10:55:13;;;;;;;;;;;;;;;;;;5082358;28;19932;-67
2022/02/04 11:00:39;;;;;;;;;;;;;;;;;;5083845;28;20392;-67
2022/02/04 11:03:10;;;;;;;;;;;;;;;;;;5085471;28;20466;-67
2022/02/04 11:05:50;;;;;;;;;;;;;;;;;;5087757;28;19970;-67
2022/02/04 11:08:32;;;;;;;;;;;;;;;;;;5089266;28;19924;-68
2022/02/04 11:11:37;;;;;;;;;;;;;;;;;;5093210;28;19923;-67
2022/02/04 11:31:14;;;;;;;;;;;;;;;;;;5087455;28;19919;-67
2022/02/04 11:33:53;;;;;;;;;;;;;;;;;;5086129;28;20296;-67
2022/02/04 11:53:03;;;;;;;;;;;;;;;;;;5083289;28;20633;-67
2022/02/04 11:55:31;;;;;;;;;;;;;;;;;;5080690;28;19931;-66
2022/02/04 11:58:00;;;;;;;;;;;;;;;;;;5086992;28;20012;-67
2022/02/04 12:00:27;;;;;;;;;;;;;;;;;;5089483;28;19938;-67
2022/02/04 12:02:54;;;;;;;;;;;;;;;;;;5088892;28;19928;-67
2022/02/04 12:05:21;;;;;;;;;;;;;;;;;;5084739;28;19940;-67
2022/02/04 12:07:48;;;;;;;;;;;;;;;;;;5084620;28;20214;-67
2022/02/04 12:10:15;;;;;;;;;;;;;;;;;;5084819;28;19927;-67
2022/02/04 12:12:42;;;;;;;;;;;;;;;;;;5090736;28;20316;-69
2022/02/04 12:15:09;;;;;;;;;;;;;;;;;;5086773;28;20378;-67
2022/02/04 12:17:36;;;;;;;;;;;;;;;;;;5087898;28;19928;-67
2022/02/04 12:20:03;;;;;;;;;;;;;;;;;;5086620;28;19928;-67
2022/02/04 12:22:30;;;;;;;;;;;;;;;;;;5089934;28;20400;-67
2022/02/04 12:24:58;;;;;;;;;;;;;;;;;;5094490;28;19934;-67
2022/02/04 12:27:25;;;;;;;;;;;;;;;;;;5088639;28;19978;-67
2022/02/04 12:29:52;;;;;;;;;;;;;;;;;;5091007;28;19924;-67
2022/02/04 12:32:19;;;;;;;;;;;;;;;;;;5089967;28;20011;-67
2022/02/04 12:34:47;;;;;;;;;;;;;;;;;;5088922;28;20014;-67
2022/02/04 12:37:14;;;;;;;;;;;;;;;;;;5085695;28;19932;-67
2022/02/04 12:39:40;;;;;;;;;;;;;;;;;;5080270;28;19924;-67
2022/02/04 12:42:09;;;;;;;;;;;;;;;;;;5088192;28;19931;-68
2022/02/04 12:44:35;;;;;;;;;;;;;;;;;;5090037;28;20371;-66
2022/02/04 12:47:02;;;;;;;;;;;;;;;;;;5077053;28;19924;-66
2022/02/04 12:49:29;;;;;;;;;;;;;;;;;;5080161;28;20016;-65
2022/02/04 12:52:01;;;;;;;;;;;;;;;;;;5085079;28;20011;-66
2022/02/04 12:54:28;;;;;;;;;;;;;;;;;;5086770;28;20316;-66
2022/02/04 12:57:25;;;;;;;;;;;;;;;;;;5083353;28;19939;-67
2022/02/04 12:59:55;;;;;;;;;;;;;;;;;;5084125;28;19924;-66
2022/02/04 13:02:35;;;;;;;;;;;;;;;;;;5082128;28;19935;-66
2022/02/04 13:07:53;;;;;;;;;;;;;;;;;;5084914;28;20058;-66
2022/02/04 13:10:20;;;;;;;;;;;;;;;;;;5083394;28;19932;-66
2022/02/04 13:12:47;;;;;;;;;;;;;;;;;;5079544;28;19954;-66
2022/02/04 13:15:14;;;;;;;;;;;;;;;;;;5083002;28;19997;-66
2022/02/04 13:17:41;;;;;;;;;;;;;;;;;;5085384;28;20298;-66
2022/02/04 13:20:08;;;;;;;;;;;;;;;;;;5084557;28;19924;-66
2022/02/04 13:22:35;;;;;;;;;;;;;;;;;;5083536;28;19934;-66
2022/02/04 13:25:02;;;;;;;;;;;;;;;;;;5086754;28;19924;-66
2022/02/04 13:27:29;;;;;;;;;;;;;;;;;;5081424;28;19928;-66
2022/02/04 13:29:56;;;;;;;;;;;;;;;;;;5081653;28;19979;-66
2022/02/04 13:32:23;;;;;;;;;;;;;;;;;;5081163;28;20715;-67
2022/02/04 13:34:50;;;;;;;;;;;;;;;;;;5082565;28;19924;-65
2022/02/04 13:37:17;;;;;;;;;;;;;;;;;;5081056;28;19931;-66
2022/02/04 13:39:54;;;;;;;;;;;;;;;;;;5075672;28;19928;-67
2022/02/04 13:42:28;;;;;;;;;;;;;;;;;;5088203;22;19935;-64
2022/02/04 13:44:59;;;;;;;;;;;;;;;;;;5079953;28;19928;-64
2022/02/04 13:47:31;;;;;;;;;;;;;;;;;;5075089;28;19928;-64
2022/02/04 13:50:12;;;;;;;;;;;;;;;;;;5076490;28;19931;-64
2022/02/04 13:52:55;;;;;;;;;;;;;;;;;;5080324;28;19928;-64
2022/02/04 13:55:33;;;;;;;;;;;;;;;;;;5078909;28;20225;-64
2022/02/04 13:58:10;;;;;;;;;;;;;;;;;;5080014;28;19983;-64
2022/02/04 14:00:44;;;;;;;;;;;;;;;;;;5075136;28;19932;-64
2022/02/04 14:03:11;;;;;;;;;;;;;;;;;;5075310;28;19931;-63
2022/02/04 14:05:46;;;;;;;;;;;;;;;;;;5081744;28;19924;-65
2022/02/04 14:08:17;;;;;;;;;;;;;;;;;;5083965;28;19932;-64
2022/02/04 14:10:46;;;;;;;;;;;;;;;;;;5082614;28;19930;-64
2022/02/04 14:13:13;;;;;;;;;;;;;;;;;;5079067;28;19939;-64
2022/02/04 14:15:40;;;;;;;;;;;;;;;;;;5079770;28;19924;-64
2022/02/04 14:18:07;;;;;;;;;;;;;;;;;;5079008;28;20019;-64
2022/02/04 14:20:36;;;;;;;;;;;;;;;;;;5081611;28;20023;-63
2022/02/04 14:23:03;;;;;;;;;;;;;;;;;;5080506;28;19998;-64
2022/02/04 14:25:30;;;;;;;;;;;;;;;;;;5081730;28;19924;-64
2022/02/04 14:28:04;;;;;;;;;;;;;;;;;;5080379;28;19934;-64
2022/02/04 14:30:35;;;;;;;;;;;;;;;;;;5080887;28;19924;-63
2022/02/04 14:33:10;;;;;;;;;;;;;;;;;;5079397;28;19951;-64
2022/02/04 14:35:50;;;;;;;;;;;;;;;;;;5081379;28;19967;-63
2022/02/04 14:52:25;;;;;;;;;;;;;;;;;;5055001;28;19966;-63
2022/02/04 15:06:10;;;;;;;;;;;;;;;;;;5075564;28;19976;-63
2022/02/04 15:08:38;;;;;;;;;;;;;;;;;;5076326;28;19932;-64
2022/02/04 15:11:10;;;;;;;;;;;;;;;;;;5082458;28;19928;-63
2022/02/04 15:13:38;;;;;;;;;;;;;;;;;;5076185;28;19978;-64
2022/02/04 15:16:07;;;;;;;;;;;;;;;;;;5070402;28;19924;-64
2022/02/04 15:18:34;;;;;;;;;;;;;;;;;;5075272;28;20364;-64
2022/02/04 15:21:01;;;;;;;;;;;;;;;;;;5075989;28;19930;-64
2022/02/04 15:23:28;;;;;;;;;;;;;;;;;;5080212;28;19932;-64
2022/02/04 15:25:55;;;;;;;;;;;;;;;;;;5084012;28;20410;-64
2022/02/04 15:28:36;;;;;;;;;;;;;;;;;;5082642;28;20179;-64
2022/02/04 15:31:04;;;;;;;;;;;;;;;;;;5081223;28;20006;-65
2022/02/04 15:33:34;;;;;;;;;;;;;;;;;;5078885;28;19924;-63
2022/02/04 15:36:01;;;;;;;;;;;;;;;;;;5078086;28;20311;-63
2022/02/04 15:38:29;;;;;;;;;;;;;;;;;;5077072;28;20323;-64
2022/02/04 15:40:57;;;;;;;;;;;;;;;;;;5078646;28;20533;-62
2022/02/04 15:43:26;;;;;;;;;;;;;;;;;;5078505;28;19932;-63
2022/02/04 15:46:17;;;;;;;;;;;;;;;;;;5080859;28;20689;-62
2022/02/04 15:49:07;;;;;;;;;;;;;;;;;;5077459;28;20362;-63
2022/02/04 15:51:43;;;;;;;;;;;;;;;;;;5080374;28;20396;-63
2022/02/04 15:54:36;;;;;;;;;;;;;;;;;;5086878;28;19931;-63
2022/02/04 15:57:17;;;;;;;;;;;;;;;;;;5083143;28;19931;-63
2022/02/04 16:00:00;;;;;;;;;;;;;;;;;;5086811;28;19963;-63
2022/02/04 16:02:40;;;;;;;;;;;;;;;;;;5081641;28;19929;-63
2022/02/04 16:05:08;;;;;;;;;;;;;;;;;;5085249;28;20023;-63
2022/02/04 16:07:35;;;;;;;;;;;;;;;;;;5082751;28;19928;-63
2022/02/04 16:10:14;;;;;;;;;;;;;;;;;;5079385;28;19932;-64
2022/02/04 16:12:51;;;;;;;;;;;;;;;;;;5083401;28;20024;-63
2022/02/04 16:15:31;;;;;;;;;;;;;;;;;;5081328;28;19946;-62
2022/02/04 16:18:01;;;;;;;;;;;;;;;;;;5079961;28;20032;-64
2022/02/04 16:20:51;;;;;;;;;;;;;;;;;;5082033;28;19930;-62
2022/02/04 16:23:26;;;;;;;;;;;;;;;;;;5080745;28;19924;-64
2022/02/04 16:26:00;;;;;;;;;;;;;;;;;;5082190;28;19932;-63
2022/02/04 16:28:39;;;;;;;;;;;;;;;;;;5079906;28;19932;-64
2022/02/04 16:31:06;;;;;;;;;;;;;;;;;;5082711;28;20413;-64
2022/02/04 16:33:33;;;;;;;;;;;;;;;;;;5080052;28;20010;-64
2022/02/04 16:36:03;;;;;;;;;;;;;;;;;;5079644;28;19947;-65
2022/02/04 16:38:30;;;;;;;;;;;;;;;;;;5081935;28;19989;-65
2022/02/04 16:41:03;;;;;;;;;;;;;;;;;;5081405;28;19977;-63
2022/02/04 16:43:30;;;;;;;;;;;;;;;;;;5081041;28;19932;-63
2022/02/04 16:45:57;;;;;;;;;;;;;;;;;;5079913;28;19924;-63
2022/02/04 16:48:24;;;;;;;;;;;;;;;;;;5081373;28;19935;-63
2022/02/04 16:50:51;;;;;;;;;;;;;;;;;;5083864;28;19928;-63
2022/02/04 16:53:18;;;;;;;;;;;;;;;;;;5085277;28;19931;-63
2022/02/04 16:55:45;;;;;;;;;;;;;;;;;;5080935;28;19925;-62
2022/02/04 16:58:12;;;;;;;;;;;;;;;;;;5082335;28;20345;-62
2022/02/04 17:00:39;;;;;;;;;;;;;;;;;;5080314;28;19928;-62
2022/02/04 17:03:09;;;;;;;;;;;;;;;;;;5082325;28;20054;-62
2022/02/04 17:05:41;;;;;;;;;;;;;;;;;;5081936;28;19924;-63
2022/02/04 17:08:10;;;;;;;;;;;;;;;;;;5080493;28;19935;-63
2022/02/04 17:10:40;;;;;;;;;;;;;;;;;;5079823;28;20306;-64
2022/02/04 17:13:07;;;;;;;;;;;;;;;;;;5079197;28;19947;-63
2022/02/04 17:15:34;;;;;;;;;;;;;;;;;;5081581;28;19928;-63
2022/02/04 17:18:01;;;;;;;;;;;;;;;;;;5080995;28;20503;-63
2022/02/04 17:20:28;;;;;;;;;;;;;;;;;;5081090;28;20409;-63
2022/02/04 17:22:56;;;;;;;;;;;;;;;;;;5076907;28;20011;-63
2022/02/04 17:25:26;;;;;;;;;;;;;;;;;;5078396;28;19924;-62
2022/02/04 17:27:53;;;;;;;;;;;;;;;;;;5082058;28;21943;-63
2022/02/04 17:30:20;;;;;;;;;;;;;;;;;;5083336;28;19931;-63
2022/02/04 17:32:49;;;;;;;;;;;;;;;;;;5080527;28;19936;-63
2022/02/04 17:35:16;;;;;;;;;;;;;;;;;;5083051;28;19924;-62
2022/02/04 17:37:42;;;;;;;;;;;;;;;;;;5082742;28;20366;-63
2022/02/04 17:40:09;;;;;;;;;;;;;;;;;;5080175;28;19928;-63
2022/02/04 17:42:39;;;;;;;;;;;;;;;;;;5079254;28;19968;-63
2022/02/04 17:45:06;;;;;;;;;;;;;;;;;;5084163;28;20398;-62
2022/02/04 17:47:34;;;;;;;;;;;;;;;;;;5080149;28;19928;-62
2022/02/04 17:50:05;;;;;;;;;;;;;;;;;;5077812;28;19924;-62
2022/02/04 17:52:39;;;;;;;;;;;;;;;;;;5081943;28;19924;-62
2022/02/04 17:55:10;;;;;;;;;;;;;;;;;;5080385;28;19932;-62
2022/02/04 17:57:40;;;;;;;;;;;;;;;;;;5079459;28;20360;-62
2022/02/04 18:00:30;;;;;;;;;;;;;;;;;;5080700;28;19943;-62
2022/02/04 18:03:03;;;;;;;;;;;;;;;;;;5081250;28;20027;-63
2022/02/04 18:05:44;;;;;;;;;;;;;;;;;;5079668;28;19924;-62
2022/02/04 18:08:11;;;;;;;;;;;;;;;;;;5081159;28;19924;-62
2022/02/04 18:10:38;;;;;;;;;;;;;;;;;;5081160;28;19925;-62
2022/02/04 18:13:05;;;;;;;;;;;;;;;;;;5079838;28;19931;-63
2022/02/04 18:15:32;;;;;;;;;;;;;;;;;;5080851;28;19994;-61
2022/02/04 18:17:59;;;;;;;;;;;;;;;;;;5080429;28;20051;-62
2022/02/04 18:20:26;;;;;;;;;;;;;;;;;;5079540;28;19955;-62
2022/02/04 18:22:53;;;;;;;;;;;;;;;;;;5077613;28;19958;-62
2022/02/04 18:25:20;;;;;;;;;;;;;;;;;;5083013;28;19935;-62
2022/02/04 18:27:48;;;;;;;;;;;;;;;;;;5077110;28;19947;-63
2022/02/04 18:30:16;;;;;;;;;;;;;;;;;;5077031;28;20023;-62
2022/02/04 18:32:46;;;;;;;;;;;;;;;;;;5079431;28;19924;-62
2022/02/04 18:35:13;;;;;;;;;;;;;;;;;;5079641;28;20340;-63
2022/02/04 18:37:44;;;;;;;;;;;;;;;;;;5082911;28;20023;-63
2022/02/04 18:40:32;;;;;;;;;;;;;;;;;;5082371;28;19924;-63
2022/02/04 18:45:48;;;;;;;;;;;;;;;;;;5073960;28;20434;-63
2022/02/04 18:48:18;;;;;;;;;;;;;;;;;;5081131;28;20364;-64
2022/02/04 18:51:01;;;;;;;;;;;;;;;;;;5079620;28;19928;-63
2022/02/04 18:53:32;;;;;;;;;;;;;;;;;;5080269;28;19924;-63
2022/02/04 18:56:14;;;;;;;;;;;;;;;;;;5083327;28;19971;-63
2022/02/04 18:58:41;;;;;;;;;;;;;;;;;;5079705;28;19978;-63
2022/02/04 19:01:08;;;;;;;;;;;;;;;;;;5082701;28;21447;-63
2022/02/04 19:03:39;;;;;;;;;;;;;;;;;;5083445;28;19932;-63
2022/02/04 19:06:14;;;;;;;;;;;;;;;;;;5082332;28;19932;-63
2022/02/04 19:08:45;;;;;;;;;;;;;;;;;;5081875;28;19931;-62
2022/02/04 19:11:16;;;;;;;;;;;;;;;;;;5080972;28;19924;-63
2022/02/04 19:13:48;;;;;;;;;;;;;;;;;;5083656;28;19955;-63
2022/02/04 19:16:26;;;;;;;;;;;;;;;;;;5078635;28;19928;-63
2022/02/04 19:19:06;;;;;;;;;;;;;;;;;;5082086;28;19928;-63
2022/02/04 19:21:41;;;;;;;;;;;;;;;;;;5082937;28;19938;-64
2022/02/04 19:24:10;;;;;;;;;;;;;;;;;;5082001;28;19932;-63
2022/02/04 19:26:37;;;;;;;;;;;;;;;;;;5086983;28;19935;-62
2022/02/04 19:29:04;;;;;;;;;;;;;;;;;;5086421;28;19935;-63
2022/02/04 19:31:38;;;;;;;;;;;;;;;;;;5085630;28;19924;-63
2022/02/04 19:34:06;;;;;;;;;;;;;;;;;;5088550;28;19931;-64
2022/02/04 19:36:33;;;;;;;;;;;;;;;;;;5083167;28;20027;-64
2022/02/04 19:39:02;;;;;;;;;;;;;;;;;;5080282;28;20039;-64
2022/02/04 19:41:31;;;;;;;;;;;;;;;;;;5096445;22;19935;-62
2022/02/04 19:43:59;;;;;;;;;;;;;;;;;;5085187;28;20438;-63
2022/02/04 19:46:31;;;;;;;;;;;;;;;;;;5086292;28;19942;-65
2022/02/04 19:49:01;;;;;;;;;;;;;;;;;;5084055;28;20458;-65
2022/02/04 19:51:35;;;;;;;;;;;;;;;;;;5087584;28;19924;-63
2022/02/04 20:24:45;;;;;;;;;;;;;;;;;;5085533;28;20434;-63
2022/02/04 20:27:10;;;;;;;;;;;;;;;;;;5083558;28;20302;-62
2022/02/04 20:29:37;;;;;;;;;;;;;;;;;;5088045;28;19924;-62
2022/02/04 20:32:04;;;;;;;;;;;;;;;;;;5082687;28;19935;-63
2022/02/04 20:34:31;;;;;;;;;;;;;;;;;;5084916;28;19924;-63
2022/02/04 20:36:58;;;;;;;;;;;;;;;;;;5082782;28;19931;-62
2022/02/04 20:39:31;;;;;;;;;;;;;;;;;;5082888;28;20043;-63
2022/02/04 20:41:58;;;;;;;;;;;;;;;;;;5084967;28;19924;-64
2022/02/04 20:44:28;;;;;;;;;;;;;;;;;;5088127;28;19925;-64
2022/02/04 20:46:55;;;;;;;;;;;;;;;;;;5080962;28;19928;-65
2022/02/04 20:49:22;;;;;;;;;;;;;;;;;;5084132;28;19924;-64
2022/02/04 20:51:49;;;;;;;;;;;;;;;;;;5079833;28;19924;-65
2022/02/04 20:54:15;;;;;;;;;;;;;;;;;;5080836;28;19928;-63
2022/02/04 20:56:43;;;;;;;;;;;;;;;;;;5083025;28;20481;-63
2022/02/04 20:59:10;;;;;;;;;;;;;;;;;;5083701;28;19943;-63
2022/02/04 21:01:37;;;;;;;;;;;;;;;;;;5086866;28;21558;-65
2022/02/04 21:04:08;;;;;;;;;;;;;;;;;;5085862;28;20339;-63
2022/02/04 21:06:45;;;;;;;;;;;;;;;;;;5084059;28;20392;-65
2022/02/04 21:15:01;;;;;;;;;;;;;;;;;;5083453;28;19927;-63
2022/02/04 21:17:33;;;;;;;;;;;;;;;;;;5083307;28;20340;-63
2022/02/04 21:20:00;;;;;;;;;;;;;;;;;;5082786;28;19924;-63
2022/02/04 21:22:27;;;;;;;;;;;;;;;;;;5084774;28;20015;-63
2022/02/04 21:24:54;;;;;;;;;;;;;;;;;;5085393;28;20011;-64
2022/02/04 21:27:21;;;;;;;;;;;;;;;;;;5082959;28;20250;-64
2022/02/04 21:29:48;;;;;;;;;;;;;;;;;;5084446;28;20023;-63
2022/02/04 21:32:15;;;;;;;;;;;;;;;;;;5080208;28;19924;-65
2022/02/04 21:37:27;;;;;;;;;;;;;;;;;;5084236;28;19966;-64
2022/02/04 21:39:54;;;;;;;;;;;;;;;;;;5083037;28;19931;-64
2022/02/04 21:42:23;;;;;;;;;;;;;;;;;;5081889;28;19930;-64
2022/02/04 21:44:50;;;;;;;;;;;;;;;;;;5085644;28;19928;-65
2022/02/04 21:47:22;;;;;;;;;;;;;;;;;;5080254;28;20023;-64
2022/02/04 21:49:50;;;;;;;;;;;;;;;;;;5083279;28;20345;-65
2022/02/04 21:52:17;;;;;;;;;;;;;;;;;;5078167;28;20015;-64
2022/02/04 21:54:44;;;;;;;;;;;;;;;;;;5085258;28;19930;-66
2022/02/04 21:57:11;;;;;;;;;;;;;;;;;;5082297;28;19966;-67
2022/02/04 21:59:38;;;;;;;;;;;;;;;;;;5085304;28;20347;-65
2022/02/04 22:02:05;;;;;;;;;;;;;;;;;;5082380;28;20033;-65
2022/02/04 22:04:32;;;;;;;;;;;;;;;;;;5081326;28;19925;-68